createdAt,value
2022-08-09T00:00:23.233Z,17.20
2022-08-09T00:02:52.297Z,16.90
2022-08-09T00:06:19.301Z,17.90
2022-08-09T00:08:12.903Z,19.30
2022-08-09T00:11:00.299Z,17.90
2022-08-09T00:13:28.358Z,17.90
2022-08-09T00:16:02.792Z,18.70
2022-08-09T00:18:34.994Z,19.20
2022-08-09T00:21:07.863Z,19.30
2022-08-09T00:23:55.642Z,19.70
2022-08-09T00:26:30.092Z,20.70
2022-08-09T00:29:02.404Z,20.10
2022-08-09T00:31:59.407Z,20.70
2022-08-09T00:34:24.093Z,20.70
2022-08-09T00:36:54.338Z,20.40
2022-08-09T00:40:14.129Z,19.40
2022-08-09T00:44:13.225Z,20.60
2022-08-09T00:44:59.770Z,21.10
2022-08-09T00:47:35.886Z,20.30
2022-08-09T00:50:14.687Z,19.90
2022-08-09T00:52:43.546Z,20.50
2022-08-09T00:55:32.652Z,20.60
2022-08-09T00:58:01.804Z,21.60
2022-08-09T01:00:35.124Z,21.30
2022-08-09T01:03:14.604Z,20.70
2022-08-09T01:05:53.878Z,20.70
2022-08-09T01:08:31.613Z,21.50
2022-08-09T01:11:09.553Z,22.90
2022-08-09T01:13:58.700Z,22.80
2022-08-09T01:16:35.278Z,22.00
2022-08-09T01:19:17.199Z,20.40
2022-08-09T01:22:16.512Z,21.20
2022-08-09T01:24:55.067Z,21.30
2022-08-09T01:27:27.679Z,22.30
2022-08-09T01:30:01.232Z,22.40
2022-08-09T01:32:35.121Z,22.30
2022-08-09T01:35:28.444Z,22.50
2022-08-09T01:38:07.684Z,22.80
2022-08-09T01:40:43.383Z,22.70
2022-08-09T01:43:13.368Z,22.50
2022-08-09T01:45:46.153Z,22.10
2022-08-09T01:48:18.121Z,21.60
2022-08-09T01:50:55.410Z,21.50
2022-08-09T01:53:23.961Z,21.50
2022-08-09T01:56:01.183Z,22.40
2022-08-09T01:58:32.665Z,24.60
2022-08-09T02:01:02.980Z,24.60
2022-08-09T02:03:34.743Z,24.90
2022-08-09T02:06:07.057Z,25.00
2022-08-09T02:08:57.573Z,24.70
2022-08-09T02:11:41.940Z,24.50
2022-08-09T02:14:25.157Z,24.70
2022-08-09T02:17:14.673Z,25.20
2022-08-09T02:19:44.618Z,26.00
2022-08-09T02:22:31.626Z,26.80
2022-08-09T02:25:07.884Z,27.30
2022-08-09T02:27:57.967Z,27.50
2022-08-09T02:30:32.693Z,27.70
2022-08-09T02:33:03.368Z,27.40
2022-08-09T02:36:03.247Z,28.10
2022-08-09T02:38:29.961Z,30.00
2022-08-09T02:41:03.069Z,29.30
2022-08-09T02:43:53.468Z,27.80
2022-08-09T02:46:25.378Z,27.90
2022-08-09T02:49:01.201Z,27.00
2022-08-09T02:51:37.080Z,26.60
2022-08-09T02:54:12.362Z,27.60
2022-08-09T02:56:51.130Z,28.00
2022-08-09T02:59:26.564Z,28.00
2022-08-09T03:02:12.062Z,27.80
2022-08-09T03:04:47.044Z,28.30
2022-08-09T03:07:20.141Z,29.70
2022-08-09T03:09:54.026Z,29.60
2022-08-09T03:12:25.610Z,29.90
2022-08-09T03:14:54.719Z,29.10
2022-08-09T03:17:27.147Z,29.10
2022-08-09T03:20:03.167Z,29.50
2022-08-09T03:22:41.432Z,30.30
2022-08-09T03:25:26.344Z,30.80
2022-08-09T03:28:03.841Z,30.80
2022-08-09T03:30:34.061Z,29.30
2022-08-09T03:33:17.673Z,29.60
2022-08-09T03:36:12.903Z,29.70
2022-08-09T03:38:42.666Z,29.20
2022-08-09T03:41:15.654Z,29.20
2022-08-09T03:44:03.739Z,29.00
2022-08-09T03:46:33.791Z,29.70
2022-08-09T03:49:08.695Z,30.90
2022-08-09T03:51:57.792Z,30.60
2022-08-09T03:54:31.758Z,31.20
2022-08-09T03:57:04.228Z,31.40
2022-08-09T03:59:53.553Z,32.20
2022-08-09T04:02:29.928Z,32.00
2022-08-09T04:05:06.695Z,30.80
2022-08-09T04:07:53.420Z,30.00
2022-08-09T04:10:28.373Z,30.00
2022-08-09T04:13:00.728Z,30.40
2022-08-09T04:16:17.042Z,30.60
2022-08-09T04:18:17.990Z,30.10
2022-08-09T04:20:47.807Z,30.00
2022-08-09T04:23:17.192Z,30.40
2022-08-09T04:25:52.213Z,32.00
2022-08-09T04:28:33.181Z,33.00
2022-08-09T04:31:05.793Z,32.80
2022-08-09T04:33:51.666Z,32.80
2022-08-09T04:36:24.748Z,33.60
2022-08-09T04:38:53.224Z,34.20
2022-08-09T04:41:23.823Z,32.90
2022-08-09T04:44:05.562Z,32.60
2022-08-09T04:46:38.338Z,32.70
2022-08-09T04:49:52.072Z,32.50
2022-08-09T04:52:18.704Z,31.40
2022-08-09T04:54:54.814Z,32.10
2022-08-09T04:57:24.468Z,28.40
2022-08-09T04:59:55.190Z,23.90
2022-08-09T05:02:23.849Z,18.80
2022-08-09T05:04:55.804Z,14.60
2022-08-09T05:07:29.151Z,11.00
2022-08-09T05:10:01.217Z,8.00
2022-08-09T05:12:31.196Z,6.00
2022-08-09T05:15:03.533Z,4.30
2022-08-09T05:18:39.044Z,2.80
2022-08-09T05:20:30.327Z,1.90
2022-08-09T05:23:54.785Z,1.20
2022-08-09T05:25:50.894Z,1.60
2022-08-09T05:28:19.879Z,1.50
2022-08-09T05:30:48.217Z,1.70
2022-08-09T05:33:16.226Z,2.90
2022-08-09T05:35:46.597Z,3.40
2022-08-09T05:38:21.694Z,4.10
2022-08-09T05:40:50.715Z,4.90
2022-08-09T05:43:20.666Z,5.30
2022-08-09T05:45:56.645Z,5.40
2022-08-09T05:48:32.793Z,5.90
2022-08-09T05:51:42.462Z,6.80
2022-08-09T05:53:57.566Z,6.50
2022-08-09T05:56:27.895Z,6.00
2022-08-09T05:58:58.559Z,5.90
2022-08-09T06:01:33.929Z,6.00
2022-08-09T06:04:12.245Z,6.50
2022-08-09T06:06:46.750Z,6.00
2022-08-09T06:09:53.914Z,6.60
2022-08-09T06:12:08.130Z,5.80
2022-08-09T06:14:37.153Z,6.10
2022-08-09T06:17:09.511Z,5.60
2022-08-09T06:19:38.229Z,6.00
2022-08-09T06:22:15.054Z,4.50
2022-08-09T06:24:44.941Z,5.10
2022-08-09T06:27:15.545Z,4.30
2022-08-09T06:29:47.958Z,4.70
2022-08-09T06:33:00.900Z,4.40
2022-08-09T06:35:15.161Z,3.50
2022-08-09T06:37:53.052Z,3.80
2022-08-09T06:40:33.435Z,3.30
2022-08-09T06:43:02.200Z,2.40
2022-08-09T06:46:04.934Z,1.60
2022-08-09T06:48:30.368Z,2.00
2022-08-09T06:50:59.599Z,1.20
2022-08-09T06:53:27.752Z,1.00
2022-08-09T06:56:09.552Z,1.00
2022-08-09T07:00:53.011Z,1.00
2022-08-09T07:01:35.571Z,1.00
2022-08-09T07:04:19.971Z,1.00
2022-08-09T07:06:53.425Z,1.00
2022-08-09T07:09:54.874Z,1.00
2022-08-09T07:12:17.683Z,1.00
2022-08-09T07:15:53.922Z,1.00
2022-08-09T07:17:56.371Z,1.00
2022-08-09T07:20:30.232Z,1.00
2022-08-09T07:22:59.590Z,1.00
2022-08-09T07:25:28.011Z,1.00
2022-08-09T07:27:58.492Z,1.00
2022-08-09T07:30:33.010Z,1.00
2022-08-09T07:33:01.180Z,1.00
2022-08-09T07:35:29.266Z,1.00
2022-08-09T07:38:07.778Z,1.00
2022-08-09T07:40:54.190Z,1.00
2022-08-09T07:43:28.988Z,1.00
2022-08-09T07:45:57.151Z,1.00
2022-08-09T07:48:31.732Z,1.00
2022-08-09T07:52:03.583Z,1.00
2022-08-09T07:54:05.927Z,1.00
2022-08-09T07:56:45.149Z,1.00
2022-08-09T07:59:33.964Z,1.00
2022-08-09T08:02:07.058Z,1.00
2022-08-09T08:04:38.799Z,1.00
2022-08-09T08:07:14.953Z,1.00
2022-08-09T08:10:14.918Z,1.00
2022-08-09T08:12:46.479Z,1.00
2022-08-09T08:15:24.512Z,1.00
2022-08-09T08:17:58.261Z,1.00
2022-08-09T08:20:32.589Z,1.00
2022-08-09T08:23:06.355Z,1.00
2022-08-09T08:25:50.302Z,1.00
2022-08-09T08:28:32.145Z,1.00
2022-08-09T08:31:13.818Z,1.00
2022-08-09T08:33:54.086Z,1.00
2022-08-09T08:36:29.834Z,1.00
2022-08-09T08:38:59.658Z,1.00
2022-08-09T08:41:41.728Z,1.00
2022-08-09T08:44:26.853Z,1.00
2022-08-09T08:46:59.479Z,1.00
2022-08-09T08:49:38.513Z,1.00
2022-08-09T08:52:50.456Z,1.00
2022-08-09T08:55:05.635Z,1.00
2022-08-09T08:57:35.413Z,1.00
2022-08-09T09:00:20.318Z,1.00
2022-08-09T09:02:52.587Z,1.00
2022-08-09T09:05:55.157Z,1.00
2022-08-09T09:08:29.857Z,1.00
2022-08-09T09:11:05.531Z,1.00
2022-08-09T09:13:54.794Z,1.00
2022-08-09T09:16:29.796Z,1.00
2022-08-09T09:19:22.791Z,1.00
2022-08-09T09:22:04.289Z,1.00
2022-08-09T09:24:35.256Z,1.00
2022-08-09T09:27:07.469Z,1.00
2022-08-09T09:30:11.956Z,1.00
2022-08-09T09:32:35.107Z,1.00
2022-08-09T09:35:09.321Z,1.00
2022-08-09T09:37:40.708Z,1.00
2022-08-09T09:40:11.804Z,1.00
2022-08-09T09:42:43.098Z,1.00
2022-08-09T09:45:25.758Z,1.00
2022-08-09T09:47:59.030Z,1.00
2022-08-09T09:50:50.773Z,1.00
2022-08-09T09:53:21.547Z,1.00
2022-08-09T09:56:09.531Z,1.00
2022-08-09T09:58:57.561Z,1.00
2022-08-09T10:01:30.137Z,1.00
2022-08-09T10:04:15.796Z,1.00
2022-08-09T10:06:51.815Z,1.00
2022-08-09T10:09:24.326Z,1.00
2022-08-09T10:12:14.792Z,1.00
2022-08-09T10:15:07.636Z,1.00
2022-08-09T10:17:55.327Z,1.00
2022-08-09T10:20:35.425Z,1.00
2022-08-09T10:23:24.562Z,1.00
2022-08-09T10:26:06.650Z,1.00
2022-08-09T10:28:40.576Z,1.00
2022-08-09T10:32:27.665Z,1.00
2022-08-09T10:34:10.129Z,1.00
2022-08-09T10:36:45.479Z,1.00
2022-08-09T10:39:19.289Z,1.00
2022-08-09T10:41:48.553Z,1.00
2022-08-09T10:44:21.739Z,1.00
2022-08-09T10:48:16.847Z,1.00
2022-08-09T10:50:27.272Z,1.00
2022-08-09T10:53:23.186Z,1.00
2022-08-09T10:56:17.645Z,1.00
2022-08-09T10:58:51.652Z,1.00
2022-08-09T11:03:13.617Z,1.00
2022-08-09T11:04:32.477Z,1.00
2022-08-09T11:07:57.463Z,1.00
2022-08-09T11:10:18.015Z,1.00
2022-08-09T11:13:49.153Z,1.00
2022-08-09T11:16:39.341Z,1.00
2022-08-09T11:19:11.254Z,1.00
2022-08-09T11:22:05.383Z,1.00
2022-08-09T11:25:05.548Z,1.00
2022-08-09T11:27:52.851Z,1.00
2022-08-09T11:30:38.194Z,1.00
2022-08-09T11:33:13.882Z,1.00
2022-08-09T11:35:50.366Z,1.00
2022-08-09T11:38:28.551Z,1.00
2022-08-09T11:44:15.002Z,1.00
2022-08-09T11:47:00.818Z,1.00
2022-08-09T11:50:57.033Z,1.00
2022-08-09T11:54:00.620Z,1.00
2022-08-09T11:56:41.529Z,1.00
2022-08-09T11:59:30.244Z,1.00
2022-08-09T12:02:34.305Z,1.00
2022-08-09T12:04:54.608Z,1.00
2022-08-09T12:07:41.413Z,1.00
2022-08-09T12:10:14.305Z,1.00
2022-08-09T12:13:00.274Z,1.00
2022-08-09T12:15:50.323Z,1.00
2022-08-09T12:18:30.320Z,1.00
2022-08-09T12:21:03.160Z,1.00
2022-08-09T12:23:47.527Z,1.00
2022-08-09T12:26:26.138Z,1.00
2022-08-09T12:29:14.547Z,1.00
2022-08-09T12:32:02.490Z,1.00
2022-08-09T12:34:36.610Z,1.00
2022-08-09T12:37:22.111Z,1.00
2022-08-09T12:40:03.548Z,1.00
2022-08-09T12:42:34.171Z,1.00
2022-08-09T12:45:32.374Z,1.00
2022-08-09T12:47:58.241Z,1.00
2022-08-09T12:50:28.585Z,1.00
2022-08-09T12:53:09.249Z,1.00
2022-08-09T12:56:11.870Z,1.00
2022-08-09T12:58:32.781Z,1.00
2022-08-09T13:01:04.669Z,1.00
2022-08-09T13:03:53.271Z,1.00
2022-08-09T13:06:34.394Z,1.00
2022-08-09T13:09:07.344Z,1.00
2022-08-09T13:11:39.154Z,1.00
2022-08-09T13:14:43.945Z,1.00
2022-08-09T13:17:03.427Z,1.00
2022-08-09T13:20:06.944Z,1.00
2022-08-09T13:22:35.712Z,1.00
2022-08-09T13:25:07.898Z,1.00
2022-08-09T13:27:48.655Z,1.00
2022-08-09T13:30:49.466Z,1.00
2022-08-09T13:33:17.005Z,1.00
2022-08-09T13:36:24.549Z,1.00
2022-08-09T13:38:56.078Z,1.00
2022-08-09T13:41:58.881Z,1.00
2022-08-09T13:44:16.894Z,1.00
2022-08-09T13:47:25.274Z,1.00
2022-08-09T13:49:39.553Z,1.00
2022-08-09T13:52:23.382Z,1.00
2022-08-09T13:55:00.698Z,1.00
2022-08-09T13:57:39.548Z,1.00
2022-08-09T14:00:12.451Z,1.00
2022-08-09T14:03:16.687Z,1.00
2022-08-09T14:05:59.765Z,1.00
2022-08-09T14:08:18.990Z,1.00
2022-08-09T14:10:52.373Z,1.00
2022-08-09T14:14:16.104Z,1.00
2022-08-09T14:16:14.658Z,1.00
2022-08-09T14:18:45.661Z,1.00
2022-08-09T14:21:18.787Z,1.00
2022-08-09T14:23:54.543Z,1.00
2022-08-09T14:26:31.826Z,1.00
2022-08-09T14:29:02.704Z,1.00
2022-08-09T14:31:49.568Z,1.00
2022-08-09T14:34:31.760Z,1.00
2022-08-09T14:37:02.658Z,1.00
2022-08-09T14:39:45.538Z,1.00
2022-08-09T14:42:31.405Z,1.00
2022-08-09T14:45:14.744Z,1.00
2022-08-09T14:47:57.439Z,1.00
2022-08-09T14:50:29.027Z,1.00
2022-08-09T14:52:57.623Z,1.00
2022-08-09T14:55:32.394Z,1.00
2022-08-09T14:58:04.545Z,1.00
2022-08-09T15:00:36.276Z,1.00
2022-08-09T15:03:06.554Z,1.00
2022-08-09T15:05:36.781Z,1.00
2022-08-09T15:08:05.688Z,1.00
2022-08-09T15:10:35.897Z,1.00
2022-08-09T15:13:08.939Z,1.00
2022-08-09T15:15:39.247Z,1.00
2022-08-09T15:18:14.104Z,1.00
2022-08-09T15:21:57.800Z,1.00
2022-08-09T15:24:02.327Z,1.00
2022-08-09T15:26:31.428Z,1.00
2022-08-09T15:29:04.717Z,1.00
2022-08-09T15:31:41.303Z,1.00
2022-08-09T15:34:31.431Z,1.00
2022-08-09T15:37:03.739Z,1.00
2022-08-09T15:39:43.927Z,1.00
2022-08-09T15:42:20.330Z,1.00
2022-08-09T15:45:08.584Z,1.00
2022-08-09T15:47:51.515Z,1.00
2022-08-09T15:50:28.771Z,1.00
2022-08-09T15:53:06.071Z,1.00
2022-08-09T15:56:04.074Z,1.00
2022-08-09T15:58:26.502Z,1.00
2022-08-09T16:00:56.793Z,1.00
2022-08-09T16:03:29.375Z,1.00
2022-08-09T16:06:07.777Z,1.00
2022-08-09T16:08:56.739Z,1.00
2022-08-09T16:11:30.988Z,1.00
2022-08-09T16:14:04.155Z,1.00
2022-08-09T16:16:37.289Z,1.00
2022-08-09T16:19:07.610Z,1.00
2022-08-09T16:21:36.245Z,1.00
2022-08-09T16:24:04.629Z,1.00
2022-08-09T16:26:34.578Z,1.00
2022-08-09T16:29:11.789Z,1.00
2022-08-09T16:32:10.245Z,1.00
2022-08-09T16:34:55.910Z,1.00
2022-08-09T16:37:50.582Z,1.00
2022-08-09T16:40:10.533Z,1.00
2022-08-09T16:42:44.797Z,1.00
2022-08-09T16:45:14.769Z,1.00
2022-08-09T16:48:40.995Z,1.00
2022-08-09T16:50:34.906Z,1.00
2022-08-09T16:53:06.545Z,1.00
2022-08-09T16:55:44.278Z,1.00
2022-08-09T16:58:24.762Z,1.00
2022-08-09T17:00:54.852Z,1.00
2022-08-09T17:03:24.718Z,1.00
2022-08-09T17:06:07.949Z,1.00
2022-08-09T17:08:45.077Z,1.00
2022-08-09T17:11:40.723Z,1.00
2022-08-09T17:14:26.192Z,1.00
2022-08-09T17:16:59.697Z,1.00
2022-08-09T17:19:46.554Z,1.00
2022-08-09T17:22:23.630Z,1.00
2022-08-09T17:24:55.153Z,1.00
2022-08-09T17:27:24.215Z,1.00
2022-08-09T17:29:53.135Z,1.00
2022-08-09T17:32:35.157Z,1.00
2022-08-09T17:35:11.829Z,1.00
2022-08-09T17:38:12.547Z,1.00
2022-08-09T17:40:32.858Z,1.00
2022-08-09T17:43:10.782Z,1.00
2022-08-09T17:46:03.766Z,1.00
2022-08-09T17:48:35.034Z,1.00
2022-08-09T17:51:17.259Z,1.00
2022-08-09T17:53:51.679Z,1.00
2022-08-09T17:56:22.145Z,1.00
2022-08-09T17:58:56.939Z,1.00
2022-08-09T18:01:25.070Z,1.00
2022-08-09T18:03:54.491Z,1.00
2022-08-09T18:06:31.147Z,1.00
2022-08-09T18:09:03.087Z,1.00
2022-08-09T18:12:04.933Z,1.00
2022-08-09T18:14:21.052Z,1.00
2022-08-09T18:16:49.758Z,1.00
2022-08-09T18:19:18.839Z,1.00
2022-08-09T18:22:13.054Z,1.00
2022-08-09T18:24:45.870Z,1.00
2022-08-09T18:27:49.364Z,1.00
2022-08-09T18:30:42.345Z,1.00
2022-08-09T18:32:54.104Z,1.00
2022-08-09T18:35:59.556Z,1.00
2022-08-09T18:38:13.093Z,1.00
2022-08-09T18:40:42.885Z,1.00
2022-08-09T18:43:12.453Z,1.00
2022-08-09T18:46:50.726Z,1.00
2022-08-09T18:48:30.200Z,1.00
2022-08-09T18:51:01.024Z,1.00
2022-08-09T18:53:41.458Z,1.00
2022-08-09T18:56:19.940Z,1.00
2022-08-09T18:58:55.651Z,1.00
2022-08-09T19:01:24.030Z,1.00
2022-08-09T19:03:57.734Z,1.00
2022-08-09T19:06:34.120Z,1.00
2022-08-09T19:09:03.882Z,1.00
2022-08-09T19:11:37.780Z,1.00
2022-08-09T19:14:06.983Z,1.00
2022-08-09T19:16:36.461Z,1.00
2022-08-09T19:19:21.530Z,1.00
2022-08-09T19:22:04.667Z,1.00
2022-08-09T19:25:09.751Z,1.00
2022-08-09T19:27:28.433Z,1.00
2022-08-09T19:30:22.199Z,1.00
2022-08-09T19:32:45.455Z,1.00
2022-08-09T19:35:17.357Z,1.00
2022-08-09T19:37:55.955Z,1.00
2022-08-09T19:40:34.546Z,1.00
2022-08-09T19:43:05.282Z,1.00
2022-08-09T19:45:40.326Z,1.00
2022-08-09T19:48:11.063Z,1.00
2022-08-09T19:50:49.206Z,1.00
2022-08-09T19:53:20.693Z,1.00
2022-08-09T19:56:02.853Z,1.00
2022-08-09T19:58:34.904Z,1.00
2022-08-09T20:01:04.223Z,1.00
2022-08-09T20:04:11.216Z,1.00
2022-08-09T20:06:23.604Z,1.00
2022-08-09T20:08:59.508Z,1.00
2022-08-09T20:11:42.817Z,1.00
2022-08-09T20:14:15.633Z,1.40
2022-08-09T20:16:49.907Z,2.00
2022-08-09T20:19:49.046Z,2.80
2022-08-09T20:22:10.241Z,2.40
2022-08-09T20:24:53.356Z,2.30
2022-08-09T20:27:23.878Z,1.70
2022-08-09T20:29:51.922Z,2.00
2022-08-09T20:32:30.131Z,3.70
2022-08-09T20:35:02.251Z,4.00
2022-08-09T20:38:08.623Z,4.00
2022-08-09T20:40:24.833Z,4.40
2022-08-09T20:43:11.907Z,5.20
2022-08-09T20:46:00.007Z,4.40
2022-08-09T20:48:33.427Z,5.30
2022-08-09T20:51:03.014Z,5.60
2022-08-09T20:53:36.311Z,6.40
2022-08-09T20:56:09.042Z,6.30
2022-08-09T20:58:38.409Z,6.60
2022-08-09T21:01:32.395Z,7.00
2022-08-09T21:05:49.831Z,7.50
2022-08-09T21:06:47.943Z,7.50
2022-08-09T21:09:16.528Z,7.70
2022-08-09T21:14:40.208Z,7.90
2022-08-09T21:18:23.135Z,7.80
2022-08-09T21:20:19.565Z,8.20
2022-08-09T21:22:46.893Z,8.80
2022-08-09T21:25:38.476Z,9.20
2022-08-09T21:28:07.317Z,9.30
2022-08-09T21:30:40.493Z,9.90
2022-08-09T21:33:08.823Z,10.40
2022-08-09T21:35:39.493Z,10.00
2022-08-09T21:38:09.907Z,10.20
2022-08-09T21:40:38.199Z,11.10
2022-08-09T21:43:09.482Z,10.60
2022-08-09T21:45:39.640Z,9.40
2022-08-09T21:48:08.639Z,9.70
2022-08-09T21:50:39.169Z,8.90
2022-08-09T21:53:15.790Z,8.80
2022-08-09T21:56:03.586Z,9.60
2022-08-09T21:58:31.651Z,9.50
2022-08-09T22:01:01.130Z,9.50
2022-08-09T22:03:29.570Z,10.10
2022-08-09T22:05:58.786Z,11.50
2022-08-09T22:08:27.337Z,11.60
2022-08-09T22:11:48.792Z,11.80
2022-08-09T22:13:44.518Z,12.30
2022-08-09T22:16:13.861Z,12.60
2022-08-09T22:18:53.139Z,12.90
2022-08-09T22:21:24.562Z,13.20
2022-08-09T22:23:58.869Z,13.50
2022-08-09T22:26:34.761Z,14.20
2022-08-09T22:29:07.579Z,14.30
2022-08-09T22:31:50.446Z,15.20
2022-08-09T22:34:25.579Z,15.30
2022-08-09T22:36:54.026Z,14.00
2022-08-09T22:39:56.021Z,14.10
2022-08-09T22:42:21.515Z,15.10
2022-08-09T22:45:00.065Z,15.60
2022-08-09T22:48:13.312Z,15.50
2022-08-09T22:50:32.202Z,14.50
2022-08-09T22:53:03.233Z,14.50
2022-08-09T22:56:06.037Z,13.10
2022-08-09T22:58:32.327Z,13.00
2022-08-09T23:01:02.417Z,12.40
2022-08-09T23:04:04.183Z,13.90
2022-08-09T23:06:34.661Z,15.70
2022-08-09T23:09:04.890Z,16.70
2022-08-09T23:11:32.936Z,17.50
2022-08-09T23:14:02.838Z,17.80
2022-08-09T23:16:31.249Z,17.80
2022-08-09T23:19:00.643Z,18.20
2022-08-09T23:21:33.881Z,18.80
2022-08-09T23:24:05.985Z,18.50
2022-08-09T23:26:35.671Z,18.00
2022-08-09T23:29:03.785Z,18.10
2022-08-09T23:31:31.775Z,17.30
2022-08-09T23:34:02.639Z,17.10
2022-08-09T23:36:32.027Z,16.90
2022-08-09T23:39:00.046Z,16.80
2022-08-09T23:41:29.629Z,16.90
2022-08-09T23:43:59.388Z,18.80
2022-08-09T23:46:27.940Z,19.70
2022-08-09T23:48:56.180Z,20.00
2022-08-09T23:51:25.961Z,19.80
2022-08-09T23:54:03.054Z,19.90
2022-08-09T23:56:52.809Z,18.50
2022-08-09T23:59:21.233Z,17.60
